Terminal Aerodrome Forecast
Issued by NWS Billings, MT

Home | Current Version | Previous Version | Text Only | Print | Product List | Glossary On
Versions: 1 2 3 4 5 6 7 8 9 10 11 12 13
000
FTUS45 KBYZ 241732
TAFSHR
TAF
KSHR 241732Z 2418/2518 33015KT P6SM SCT040 BKN060
     FM242200 34015G22KT P6SM VCTS SCT050CB BKN080
     FM250200 VRB06KT P6SM SCT100=

USA.gov is the U.S. government's official web portal to all federal, state and local government web resources and services.